sensor_id;sensor_type;location;lat;lon;timestamp;temperature;humidity
13322;DHT22;6730;46.248;6.930;2023-01-29T00:01:39;-0.80;99.90
13322;DHT22;6730;46.248;6.930;2023-01-29T00:04:04;-1.30;99.90
13322;DHT22;6730;46.248;6.930;2023-01-29T00:06:30;-1.40;99.90
13322;DHT22;6730;46.248;6.930;2023-01-29T00:08:56;-1.30;99.90
13322;DHT22;6730;46.248;6.930;2023-01-29T00:11:22;-1.40;99.90
13322;DHT22;6730;46.248;6.930;2023-01-29T00:13:51;-1.00;99.90
13322;DHT22;6730;46.248;6.930;2023-01-29T00:16:18;-0.80;99.90
13322;DHT22;6730;46.248;6.930;2023-01-29T00:18:43;-0.80;99.90
13322;DHT22;6730;46.248;6.930;2023-01-29T00:21:16;-0.70;99.90
13322;DHT22;6730;46.248;6.930;2023-01-29T00:23:42;-0.30;99.90
13322;DHT22;6730;46.248;6.930;2023-01-29T00:26:09;0.00;99.90
13322;DHT22;6730;46.248;6.930;2023-01-29T00:28:35;0.30;99.90
13322;DHT22;6730;46.248;6.930;2023-01-29T00:31:14;0.50;99.90
13322;DHT22;6730;46.248;6.930;2023-01-29T00:33:40;0.30;99.90
13322;DHT22;6730;46.248;6.930;2023-01-29T00:36:08;0.50;99.90
13322;DHT22;6730;46.248;6.930;2023-01-29T00:38:34;0.60;99.90
13322;DHT22;6730;46.248;6.930;2023-01-29T00:41:07;0.50;99.90
13322;DHT22;6730;46.248;6.930;2023-01-29T00:43:59;0.70;99.90
13322;DHT22;6730;46.248;6.930;2023-01-29T00:46:44;0.60;99.90
13322;DHT22;6730;46.248;6.930;2023-01-29T00:49:10;0.40;99.90
13322;DHT22;6730;46.248;6.930;2023-01-29T00:51:36;0.40;99.90
13322;DHT22;6730;46.248;6.930;2023-01-29T00:54:03;0.10;99.90
13322;DHT22;6730;46.248;6.930;2023-01-29T00:56:32;0.00;99.90
13322;DHT22;6730;46.248;6.930;2023-01-29T00:58:59;0.10;99.90
13322;DHT22;6730;46.248;6.930;2023-01-29T01:01:25;0.10;99.90
13322;DHT22;6730;46.248;6.930;2023-01-29T01:04:10;0.20;99.90
13322;DHT22;6730;46.248;6.930;2023-01-29T01:06:40;0.20;99.90
13322;DHT22;6730;46.248;6.930;2023-01-29T01:09:07;-0.20;99.90
13322;DHT22;6730;46.248;6.930;2023-01-29T01:11:52;-0.30;99.90
13322;DHT22;6730;46.248;6.930;2023-01-29T01:14:18;-0.30;99.90
13322;DHT22;6730;46.248;6.930;2023-01-29T01:16:46;-0.60;99.90
13322;DHT22;6730;46.248;6.930;2023-01-29T01:19:13;-0.90;99.90
13322;DHT22;6730;46.248;6.930;2023-01-29T01:21:39;-1.10;99.90
13322;DHT22;6730;46.248;6.930;2023-01-29T01:24:04;-1.00;99.90
13322;DHT22;6730;46.248;6.930;2023-01-29T01:26:31;-0.70;99.90
13322;DHT22;6730;46.248;6.930;2023-01-29T01:28:57;-1.30;99.90
13322;DHT22;6730;46.248;6.930;2023-01-29T01:31:23;-1.20;99.90
13322;DHT22;6730;46.248;6.930;2023-01-29T01:33:49;-0.60;99.90
13322;DHT22;6730;46.248;6.930;2023-01-29T01:36:16;-0.40;99.90
13322;DHT22;6730;46.248;6.930;2023-01-29T01:38:42;0.00;99.90
13322;DHT22;6730;46.248;6.930;2023-01-29T01:41:11;0.20;99.90
13322;DHT22;6730;46.248;6.930;2023-01-29T01:46:13;0.50;99.90
13322;DHT22;6730;46.248;6.930;2023-01-29T01:48:39;-0.40;99.90
13322;DHT22;6730;46.248;6.930;2023-01-29T01:51:05;-0.20;99.90
13322;DHT22;6730;46.248;6.930;2023-01-29T01:53:45;0.10;99.90
13322;DHT22;6730;46.248;6.930;2023-01-29T01:56:22;0.40;99.90
13322;DHT22;6730;46.248;6.930;2023-01-29T01:58:51;0.20;99.90
13322;DHT22;6730;46.248;6.930;2023-01-29T02:01:18;0.20;99.90
13322;DHT22;6730;46.248;6.930;2023-01-29T02:04:00;-0.10;99.90
13322;DHT22;6730;46.248;6.930;2023-01-29T02:06:46;-0.30;99.90
13322;DHT22;6730;46.248;6.930;2023-01-29T02:09:35;-0.60;99.90
13322;DHT22;6730;46.248;6.930;2023-01-29T02:12:06;-0.80;99.90
13322;DHT22;6730;46.248;6.930;2023-01-29T02:14:33;-0.90;99.90
13322;DHT22;6730;46.248;6.930;2023-01-29T02:17:04;-0.80;99.90
13322;DHT22;6730;46.248;6.930;2023-01-29T02:19:56;-0.50;99.90
13322;DHT22;6730;46.248;6.930;2023-01-29T02:32:54;-0.40;99.90
13322;DHT22;6730;46.248;6.930;2023-01-29T02:40:52;-0.10;99.90
13322;DHT22;6730;46.248;6.930;2023-01-29T02:48:24;-0.90;99.90
13322;DHT22;6730;46.248;6.930;2023-01-29T02:50:56;-0.90;99.90
13322;DHT22;6730;46.248;6.930;2023-01-29T02:56:10;-0.80;99.90
13322;DHT22;6730;46.248;6.930;2023-01-29T02:58:42;-0.80;99.90
13322;DHT22;6730;46.248;6.930;2023-01-29T03:01:26;-0.50;99.90
13322;DHT22;6730;46.248;6.930;2023-01-29T03:04:05;-0.40;99.90
13322;DHT22;6730;46.248;6.930;2023-01-29T03:06:37;-0.30;99.90
13322;DHT22;6730;46.248;6.930;2023-01-29T03:09:08;-0.20;99.90
13322;DHT22;6730;46.248;6.930;2023-01-29T03:11:40;0.20;99.90
13322;DHT22;6730;46.248;6.930;2023-01-29T03:14:35;0.30;99.90
13322;DHT22;6730;46.248;6.930;2023-01-29T03:17:29;0.10;99.90
13322;DHT22;6730;46.248;6.930;2023-01-29T03:19:58;0.00;99.90
13322;DHT22;6730;46.248;6.930;2023-01-29T03:22:25;0.00;99.90
13322;DHT22;6730;46.248;6.930;2023-01-29T03:24:57;0.30;99.90
13322;DHT22;6730;46.248;6.930;2023-01-29T03:27:51;0.00;99.90
13322;DHT22;6730;46.248;6.930;2023-01-29T03:30:47;-0.50;99.90
13322;DHT22;6730;46.248;6.930;2023-01-29T03:33:38;-0.40;99.90
13322;DHT22;6730;46.248;6.930;2023-01-29T03:36:12;0.10;99.90
13322;DHT22;6730;46.248;6.930;2023-01-29T03:38:42;0.20;99.90
13322;DHT22;6730;46.248;6.930;2023-01-29T03:43:46;-0.10;99.90
13322;DHT22;6730;46.248;6.930;2023-01-29T03:46:58;-0.20;99.90
13322;DHT22;6730;46.248;6.930;2023-01-29T03:55:03;-0.20;99.90
13322;DHT22;6730;46.248;6.930;2023-01-29T04:05:18;-0.70;99.90
13322;DHT22;6730;46.248;6.930;2023-01-29T04:07:44;-1.20;99.90
13322;DHT22;6730;46.248;6.930;2023-01-29T04:10:15;-1.10;99.90
13322;DHT22;6730;46.248;6.930;2023-01-29T04:12:50;-1.00;99.90
13322;DHT22;6730;46.248;6.930;2023-01-29T04:15:19;-1.00;99.90
13322;DHT22;6730;46.248;6.930;2023-01-29T04:17:50;-1.10;99.90
13322;DHT22;6730;46.248;6.930;2023-01-29T04:20:18;-1.20;99.90
13322;DHT22;6730;46.248;6.930;2023-01-29T04:22:46;-1.40;99.90
13322;DHT22;6730;46.248;6.930;2023-01-29T04:25:19;-1.50;99.90
13322;DHT22;6730;46.248;6.930;2023-01-29T04:28:15;-1.40;99.90
13322;DHT22;6730;46.248;6.930;2023-01-29T04:35:52;-1.80;99.90
13322;DHT22;6730;46.248;6.930;2023-01-29T04:38:34;-1.80;99.90
13322;DHT22;6730;46.248;6.930;2023-01-29T04:46:22;-1.80;99.90
13322;DHT22;6730;46.248;6.930;2023-01-29T04:54:15;-1.90;99.90
13322;DHT22;6730;46.248;6.930;2023-01-29T04:57:09;-2.00;99.90
13322;DHT22;6730;46.248;6.930;2023-01-29T04:59:47;-2.00;99.90
13322;DHT22;6730;46.248;6.930;2023-01-29T05:02:17;-2.10;99.90
13322;DHT22;6730;46.248;6.930;2023-01-29T05:04:44;-2.10;99.90
13322;DHT22;6730;46.248;6.930;2023-01-29T05:07:13;-2.10;99.90
13322;DHT22;6730;46.248;6.930;2023-01-29T05:09:41;-2.20;99.90
13322;DHT22;6730;46.248;6.930;2023-01-29T05:12:09;-2.20;99.90
13322;DHT22;6730;46.248;6.930;2023-01-29T05:14:38;-2.20;99.90
13322;DHT22;6730;46.248;6.930;2023-01-29T05:17:09;-2.30;99.90
13322;DHT22;6730;46.248;6.930;2023-01-29T05:19:37;-2.50;99.90
13322;DHT22;6730;46.248;6.930;2023-01-29T05:22:04;-2.50;99.90
13322;DHT22;6730;46.248;6.930;2023-01-29T05:24:30;-2.50;99.90
13322;DHT22;6730;46.248;6.930;2023-01-29T05:26:56;-2.40;99.90
13322;DHT22;6730;46.248;6.930;2023-01-29T05:29:45;-2.40;99.90
13322;DHT22;6730;46.248;6.930;2023-01-29T05:32:15;-2.40;99.90
13322;DHT22;6730;46.248;6.930;2023-01-29T05:34:41;-2.40;99.90
13322;DHT22;6730;46.248;6.930;2023-01-29T05:37:07;-2.30;99.90
13322;DHT22;6730;46.248;6.930;2023-01-29T05:39:33;-2.20;99.90
13322;DHT22;6730;46.248;6.930;2023-01-29T05:41:58;-2.20;99.90
13322;DHT22;6730;46.248;6.930;2023-01-29T05:44:24;-2.30;99.90
13322;DHT22;6730;46.248;6.930;2023-01-29T05:46:50;-2.20;99.90
13322;DHT22;6730;46.248;6.930;2023-01-29T05:49:16;-2.10;99.90
13322;DHT22;6730;46.248;6.930;2023-01-29T05:51:42;-2.10;99.90
13322;DHT22;6730;46.248;6.930;2023-01-29T05:54:10;-2.10;99.90
13322;DHT22;6730;46.248;6.930;2023-01-29T05:56:37;-2.20;99.90
13322;DHT22;6730;46.248;6.930;2023-01-29T05:59:03;-2.20;99.90
13322;DHT22;6730;46.248;6.930;2023-01-29T06:01:29;-2.10;99.90
13322;DHT22;6730;46.248;6.930;2023-01-29T06:03:54;-2.00;99.90
13322;DHT22;6730;46.248;6.930;2023-01-29T06:06:20;-2.10;99.90
13322;DHT22;6730;46.248;6.930;2023-01-29T06:08:46;-2.20;99.90
13322;DHT22;6730;46.248;6.930;2023-01-29T06:11:12;-2.30;99.90
13322;DHT22;6730;46.248;6.930;2023-01-29T06:13:39;-2.30;99.90
13322;DHT22;6730;46.248;6.930;2023-01-29T06:16:06;-2.20;99.90
13322;DHT22;6730;46.248;6.930;2023-01-29T06:18:32;-2.20;99.90
13322;DHT22;6730;46.248;6.930;2023-01-29T06:21:02;-2.20;99.90
13322;DHT22;6730;46.248;6.930;2023-01-29T06:23:29;-2.20;99.90
13322;DHT22;6730;46.248;6.930;2023-01-29T06:26:03;-2.10;99.90
13322;DHT22;6730;46.248;6.930;2023-01-29T06:28:29;-2.10;99.90
13322;DHT22;6730;46.248;6.930;2023-01-29T06:31:00;-2.20;99.90
13322;DHT22;6730;46.248;6.930;2023-01-29T06:33:26;-2.20;99.90
13322;DHT22;6730;46.248;6.930;2023-01-29T06:35:59;-2.10;99.90
13322;DHT22;6730;46.248;6.930;2023-01-29T06:38:25;-1.80;99.90
13322;DHT22;6730;46.248;6.930;2023-01-29T06:40:52;-1.70;99.90
13322;DHT22;6730;46.248;6.930;2023-01-29T06:43:18;-1.70;99.90
13322;DHT22;6730;46.248;6.930;2023-01-29T06:45:55;-1.90;99.90
13322;DHT22;6730;46.248;6.930;2023-01-29T06:48:22;-2.10;99.90
13322;DHT22;6730;46.248;6.930;2023-01-29T06:50:48;-2.20;99.90
13322;DHT22;6730;46.248;6.930;2023-01-29T06:53:15;-2.30;99.90
13322;DHT22;6730;46.248;6.930;2023-01-29T06:55:41;-2.40;99.90
13322;DHT22;6730;46.248;6.930;2023-01-29T06:58:11;-2.30;99.90
13322;DHT22;6730;46.248;6.930;2023-01-29T07:00:37;-2.20;99.90
13322;DHT22;6730;46.248;6.930;2023-01-29T07:03:03;-2.00;99.90
13322;DHT22;6730;46.248;6.930;2023-01-29T07:05:29;-2.00;99.90
13322;DHT22;6730;46.248;6.930;2023-01-29T07:07:55;-2.00;99.90
13322;DHT22;6730;46.248;6.930;2023-01-29T07:10:22;-2.30;99.90
13322;DHT22;6730;46.248;6.930;2023-01-29T07:12:47;-2.50;99.90
13322;DHT22;6730;46.248;6.930;2023-01-29T07:15:13;-2.50;99.90
13322;DHT22;6730;46.248;6.930;2023-01-29T07:17:39;-2.50;99.90
13322;DHT22;6730;46.248;6.930;2023-01-29T07:20:08;-2.40;99.90
13322;DHT22;6730;46.248;6.930;2023-01-29T07:22:34;-2.10;99.90
13322;DHT22;6730;46.248;6.930;2023-01-29T07:25:00;-1.80;99.90
13322;DHT22;6730;46.248;6.930;2023-01-29T07:27:26;-1.60;99.90
13322;DHT22;6730;46.248;6.930;2023-01-29T07:29:55;-1.40;99.90
13322;DHT22;6730;46.248;6.930;2023-01-29T07:32:20;-1.50;99.90
13322;DHT22;6730;46.248;6.930;2023-01-29T07:34:46;-1.50;99.90
13322;DHT22;6730;46.248;6.930;2023-01-29T07:37:11;-1.60;99.90
13322;DHT22;6730;46.248;6.930;2023-01-29T07:39:37;-1.40;99.90
13322;DHT22;6730;46.248;6.930;2023-01-29T07:42:03;-1.70;99.90
13322;DHT22;6730;46.248;6.930;2023-01-29T07:44:28;-2.10;99.90
13322;DHT22;6730;46.248;6.930;2023-01-29T07:46:54;-2.30;99.90
13322;DHT22;6730;46.248;6.930;2023-01-29T07:49:20;-2.30;99.90
13322;DHT22;6730;46.248;6.930;2023-01-29T07:51:45;-2.00;99.90
13322;DHT22;6730;46.248;6.930;2023-01-29T07:54:11;-1.40;99.90
13322;DHT22;6730;46.248;6.930;2023-01-29T07:56:36;-0.80;99.90
13322;DHT22;6730;46.248;6.930;2023-01-29T07:59:02;-0.30;99.90
13322;DHT22;6730;46.248;6.930;2023-01-29T08:01:28;0.10;99.90
13322;DHT22;6730;46.248;6.930;2023-01-29T08:03:53;0.60;99.90
13322;DHT22;6730;46.248;6.930;2023-01-29T08:06:19;0.70;99.90
13322;DHT22;6730;46.248;6.930;2023-01-29T08:08:44;0.60;99.90
13322;DHT22;6730;46.248;6.930;2023-01-29T08:11:10;0.20;99.90
13322;DHT22;6730;46.248;6.930;2023-01-29T08:13:36;0.40;99.90
13322;DHT22;6730;46.248;6.930;2023-01-29T08:16:02;0.80;99.90
13322;DHT22;6730;46.248;6.930;2023-01-29T08:18:28;1.40;99.90
13322;DHT22;6730;46.248;6.930;2023-01-29T08:21:02;1.70;99.90
13322;DHT22;6730;46.248;6.930;2023-01-29T08:23:28;2.10;99.90
13322;DHT22;6730;46.248;6.930;2023-01-29T08:25:54;2.40;99.90
13322;DHT22;6730;46.248;6.930;2023-01-29T08:28:19;2.80;99.90
13322;DHT22;6730;46.248;6.930;2023-01-29T08:30:45;3.30;99.90
13322;DHT22;6730;46.248;6.930;2023-01-29T08:33:11;3.30;99.90
13322;DHT22;6730;46.248;6.930;2023-01-29T08:35:37;3.80;99.90
13322;DHT22;6730;46.248;6.930;2023-01-29T08:38:04;4.30;99.90
13322;DHT22;6730;46.248;6.930;2023-01-29T08:40:31;4.50;99.90
13322;DHT22;6730;46.248;6.930;2023-01-29T08:43:02;5.30;99.90
13322;DHT22;6730;46.248;6.930;2023-01-29T08:45:28;5.60;99.90
13322;DHT22;6730;46.248;6.930;2023-01-29T08:47:54;6.40;99.90
13322;DHT22;6730;46.248;6.930;2023-01-29T08:50:20;7.10;98.90
13322;DHT22;6730;46.248;6.930;2023-01-29T08:52:46;6.90;97.10
13322;DHT22;6730;46.248;6.930;2023-01-29T08:55:12;6.80;96.20
13322;DHT22;6730;46.248;6.930;2023-01-29T08:57:38;6.60;97.30
13322;DHT22;6730;46.248;6.930;2023-01-29T09:00:05;6.40;95.10
13322;DHT22;6730;46.248;6.930;2023-01-29T09:02:31;6.20;96.00
13322;DHT22;6730;46.248;6.930;2023-01-29T09:04:56;5.40;97.00
13322;DHT22;6730;46.248;6.930;2023-01-29T09:07:22;4.60;97.70
13322;DHT22;6730;46.248;6.930;2023-01-29T09:09:48;4.70;98.30
13322;DHT22;6730;46.248;6.930;2023-01-29T09:12:13;5.40;98.90
13322;DHT22;6730;46.248;6.930;2023-01-29T09:14:39;4.80;98.00
13322;DHT22;6730;46.248;6.930;2023-01-29T09:17:05;5.10;98.00
13322;DHT22;6730;46.248;6.930;2023-01-29T09:19:31;5.10;98.60
13322;DHT22;6730;46.248;6.930;2023-01-29T09:21:56;6.10;99.50
13322;DHT22;6730;46.248;6.930;2023-01-29T09:24:22;7.00;95.90
13322;DHT22;6730;46.248;6.930;2023-01-29T09:26:48;7.50;95.50
13322;DHT22;6730;46.248;6.930;2023-01-29T09:29:14;7.00;95.20
13322;DHT22;6730;46.248;6.930;2023-01-29T09:31:39;5.90;95.00
13322;DHT22;6730;46.248;6.930;2023-01-29T09:34:05;5.40;96.50
13322;DHT22;6730;46.248;6.930;2023-01-29T09:36:30;5.30;97.00
13322;DHT22;6730;46.248;6.930;2023-01-29T09:38:57;5.80;96.40
13322;DHT22;6730;46.248;6.930;2023-01-29T09:44:20;5.70;97.50
13322;DHT22;6730;46.248;6.930;2023-01-29T09:46:49;6.00;95.20
13322;DHT22;6730;46.248;6.930;2023-01-29T09:51:50;5.90;96.20
13322;DHT22;6730;46.248;6.930;2023-01-29T09:54:28;4.40;98.80
13322;DHT22;6730;46.248;6.930;2023-01-29T09:56:56;4.20;99.70
13322;DHT22;6730;46.248;6.930;2023-01-29T09:59:25;3.80;99.30
13322;DHT22;6730;46.248;6.930;2023-01-29T10:17:53;5.20;95.70
13322;DHT22;6730;46.248;6.930;2023-01-29T10:23:28;4.30;98.10
13322;DHT22;6730;46.248;6.930;2023-01-29T10:25:55;4.70;97.80
13322;DHT22;6730;46.248;6.930;2023-01-29T10:28:37;4.80;97.70
13322;DHT22;6730;46.248;6.930;2023-01-29T10:31:24;4.80;98.40
13322;DHT22;6730;46.248;6.930;2023-01-29T10:33:55;5.10;97.30
13322;DHT22;6730;46.248;6.930;2023-01-29T10:36:26;4.80;97.30
13322;DHT22;6730;46.248;6.930;2023-01-29T10:38:53;4.20;98.30
13322;DHT22;6730;46.248;6.930;2023-01-29T10:41:51;4.70;97.80
13322;DHT22;6730;46.248;6.930;2023-01-29T10:53:05;4.50;97.50
13322;DHT22;6730;46.248;6.930;2023-01-29T10:58:21;5.10;96.50
13322;DHT22;6730;46.248;6.930;2023-01-29T11:00:51;5.60;97.10
13322;DHT22;6730;46.248;6.930;2023-01-29T11:03:27;4.80;96.80
13322;DHT22;6730;46.248;6.930;2023-01-29T11:08:45;4.60;97.50
13322;DHT22;6730;46.248;6.930;2023-01-29T11:11:18;4.60;97.60
13322;DHT22;6730;46.248;6.930;2023-01-29T11:13:54;4.90;96.70
13322;DHT22;6730;46.248;6.930;2023-01-29T11:16:22;4.40;97.40
13322;DHT22;6730;46.248;6.930;2023-01-29T11:18:58;3.90;97.60
13322;DHT22;6730;46.248;6.930;2023-01-29T11:21:27;3.90;99.50
13322;DHT22;6730;46.248;6.930;2023-01-29T11:24:06;4.30;99.60
13322;DHT22;6730;46.248;6.930;2023-01-29T11:26:34;4.10;97.50
13322;DHT22;6730;46.248;6.930;2023-01-29T11:29:02;3.90;98.00
13322;DHT22;6730;46.248;6.930;2023-01-29T11:31:35;3.60;99.10
13322;DHT22;6730;46.248;6.930;2023-01-29T11:34:11;3.50;98.20
13322;DHT22;6730;46.248;6.930;2023-01-29T11:36:38;3.40;98.60
13322;DHT22;6730;46.248;6.930;2023-01-29T11:41:57;4.10;98.00
13322;DHT22;6730;46.248;6.930;2023-01-29T11:44:35;4.00;97.70
13322;DHT22;6730;46.248;6.930;2023-01-29T11:49:37;4.30;97.70
13322;DHT22;6730;46.248;6.930;2023-01-29T11:52:07;4.80;98.20
13322;DHT22;6730;46.248;6.930;2023-01-29T11:54:42;5.40;98.10
13322;DHT22;6730;46.248;6.930;2023-01-29T11:57:36;4.70;98.60
13322;DHT22;6730;46.248;6.930;2023-01-29T12:02:44;5.00;98.10
13322;DHT22;6730;46.248;6.930;2023-01-29T12:05:17;4.90;97.50
13322;DHT22;6730;46.248;6.930;2023-01-29T12:07:52;4.60;98.80
13322;DHT22;6730;46.248;6.930;2023-01-29T12:15:39;5.20;97.90
13322;DHT22;6730;46.248;6.930;2023-01-29T12:20:54;4.70;98.40
13322;DHT22;6730;46.248;6.930;2023-01-29T12:29:30;5.50;97.50
13322;DHT22;6730;46.248;6.930;2023-01-29T12:32:08;5.70;96.70
13322;DHT22;6730;46.248;6.930;2023-01-29T12:34:43;5.10;97.30
13322;DHT22;6730;46.248;6.930;2023-01-29T12:40:00;4.80;97.80
13322;DHT22;6730;46.248;6.930;2023-01-29T12:42:26;4.30;99.10
13322;DHT22;6730;46.248;6.930;2023-01-29T12:44:59;4.70;99.10
13322;DHT22;6730;46.248;6.930;2023-01-29T12:47:41;4.70;98.10
13322;DHT22;6730;46.248;6.930;2023-01-29T12:50:42;3.60;99.80
13322;DHT22;6730;46.248;6.930;2023-01-29T12:53:27;3.40;99.90
13322;DHT22;6730;46.248;6.930;2023-01-29T12:59:19;2.30;99.90
13322;DHT22;6730;46.248;6.930;2023-01-29T13:01:52;2.70;99.90
13322;DHT22;6730;46.248;6.930;2023-01-29T13:07:05;2.70;99.90
13322;DHT22;6730;46.248;6.930;2023-01-29T13:09:36;3.00;99.90
13322;DHT22;6730;46.248;6.930;2023-01-29T13:12:15;3.00;99.90
13322;DHT22;6730;46.248;6.930;2023-01-29T13:17:39;2.50;99.90
13322;DHT22;6730;46.248;6.930;2023-01-29T13:20:34;2.20;99.90
13322;DHT22;6730;46.248;6.930;2023-01-29T13:23:50;2.30;99.90
13322;DHT22;6730;46.248;6.930;2023-01-29T13:25:56;2.40;99.90
13322;DHT22;6730;46.248;6.930;2023-01-29T13:28:24;1.80;99.90
13322;DHT22;6730;46.248;6.930;2023-01-29T13:31:32;1.20;99.90
13322;DHT22;6730;46.248;6.930;2023-01-29T13:36:47;0.90;99.90
13322;DHT22;6730;46.248;6.930;2023-01-29T13:39:33;1.00;99.90
13322;DHT22;6730;46.248;6.930;2023-01-29T13:42:01;1.10;99.90
13322;DHT22;6730;46.248;6.930;2023-01-29T13:46:59;1.30;99.90
13322;DHT22;6730;46.248;6.930;2023-01-29T13:49:36;1.40;99.90
13322;DHT22;6730;46.248;6.930;2023-01-29T13:52:30;1.50;99.90
13322;DHT22;6730;46.248;6.930;2023-01-29T13:55:07;1.20;99.90
13322;DHT22;6730;46.248;6.930;2023-01-29T14:02:47;0.70;99.90
13322;DHT22;6730;46.248;6.930;2023-01-29T14:13:48;0.80;99.90
13322;DHT22;6730;46.248;6.930;2023-01-29T14:18:59;1.30;99.90
13322;DHT22;6730;46.248;6.930;2023-01-29T14:21:29;0.90;99.90
13322;DHT22;6730;46.248;6.930;2023-01-29T14:26:43;0.70;99.90
13322;DHT22;6730;46.248;6.930;2023-01-29T14:29:22;0.70;99.90
13322;DHT22;6730;46.248;6.930;2023-01-29T14:32:06;0.60;99.90
13322;DHT22;6730;46.248;6.930;2023-01-29T14:39:46;0.30;99.90
13322;DHT22;6730;46.248;6.930;2023-01-29T14:42:36;0.40;99.90
13322;DHT22;6730;46.248;6.930;2023-01-29T14:47:54;0.30;99.90
13322;DHT22;6730;46.248;6.930;2023-01-29T14:56:00;0.40;99.90
13322;DHT22;6730;46.248;6.930;2023-01-29T14:58:41;0.30;99.90
13322;DHT22;6730;46.248;6.930;2023-01-29T15:01:24;0.40;99.90
13322;DHT22;6730;46.248;6.930;2023-01-29T15:06:45;0.40;99.90
13322;DHT22;6730;46.248;6.930;2023-01-29T15:09:12;0.50;99.90
13322;DHT22;6730;46.248;6.930;2023-01-29T15:11:53;1.10;99.90
13322;DHT22;6730;46.248;6.930;2023-01-29T15:14:35;1.70;99.90
13322;DHT22;6730;46.248;6.930;2023-01-29T15:19:36;2.80;99.90
13322;DHT22;6730;46.248;6.930;2023-01-29T15:24:42;3.30;99.90
13322;DHT22;6730;46.248;6.930;2023-01-29T15:27:17;3.10;99.90
13322;DHT22;6730;46.248;6.930;2023-01-29T15:29:47;2.90;99.90
13322;DHT22;6730;46.248;6.930;2023-01-29T15:32:17;2.70;99.90
13322;DHT22;6730;46.248;6.930;2023-01-29T15:34:52;2.60;99.90
13322;DHT22;6730;46.248;6.930;2023-01-29T15:37:33;1.70;99.90
13322;DHT22;6730;46.248;6.930;2023-01-29T15:39:59;1.50;99.90
13322;DHT22;6730;46.248;6.930;2023-01-29T15:42:27;1.80;99.90
13322;DHT22;6730;46.248;6.930;2023-01-29T15:44:53;2.30;99.90
13322;DHT22;6730;46.248;6.930;2023-01-29T15:47:23;2.40;99.90
13322;DHT22;6730;46.248;6.930;2023-01-29T15:49:49;1.80;99.90
13322;DHT22;6730;46.248;6.930;2023-01-29T15:52:35;1.50;99.90
13322;DHT22;6730;46.248;6.930;2023-01-29T15:55:04;1.30;99.90
13322;DHT22;6730;46.248;6.930;2023-01-29T15:57:35;1.60;99.90
13322;DHT22;6730;46.248;6.930;2023-01-29T16:00:03;1.70;99.90
13322;DHT22;6730;46.248;6.930;2023-01-29T16:02:40;1.80;99.90
13322;DHT22;6730;46.248;6.930;2023-01-29T16:05:14;1.70;99.90
13322;DHT22;6730;46.248;6.930;2023-01-29T16:07:42;1.40;99.90
13322;DHT22;6730;46.248;6.930;2023-01-29T16:10:23;1.40;99.90
13322;DHT22;6730;46.248;6.930;2023-01-29T16:12:51;1.60;99.90
13322;DHT22;6730;46.248;6.930;2023-01-29T16:17:57;0.90;99.90
13322;DHT22;6730;46.248;6.930;2023-01-29T16:20:44;0.10;99.90
13322;DHT22;6730;46.248;6.930;2023-01-29T16:23:26;-0.30;99.90
13322;DHT22;6730;46.248;6.930;2023-01-29T16:25:55;-0.40;99.90
13322;DHT22;6730;46.248;6.930;2023-01-29T16:28:26;-0.40;99.90
13322;DHT22;6730;46.248;6.930;2023-01-29T16:30:57;-0.30;99.90
13322;DHT22;6730;46.248;6.930;2023-01-29T16:33:37;0.00;99.90
13322;DHT22;6730;46.248;6.930;2023-01-29T16:36:11;0.00;99.90
13322;DHT22;6730;46.248;6.930;2023-01-29T16:38:38;-0.10;99.90
13322;DHT22;6730;46.248;6.930;2023-01-29T16:41:35;-0.10;99.90
13322;DHT22;6730;46.248;6.930;2023-01-29T16:44:36;-0.60;99.90
13322;DHT22;6730;46.248;6.930;2023-01-29T16:49:59;-0.70;99.90
13322;DHT22;6730;46.248;6.930;2023-01-29T16:52:30;-0.10;99.90
13322;DHT22;6730;46.248;6.930;2023-01-29T16:55:12;0.50;99.90
13322;DHT22;6730;46.248;6.930;2023-01-29T16:57:40;0.80;99.90
13322;DHT22;6730;46.248;6.930;2023-01-29T17:00:46;1.00;99.90
13322;DHT22;6730;46.248;6.930;2023-01-29T17:03:06;0.90;99.90
13322;DHT22;6730;46.248;6.930;2023-01-29T17:05:34;0.50;99.90
13322;DHT22;6730;46.248;6.930;2023-01-29T17:08:01;0.20;99.90
13322;DHT22;6730;46.248;6.930;2023-01-29T17:10:29;0.20;99.90
13322;DHT22;6730;46.248;6.930;2023-01-29T17:13:06;0.30;99.90
13322;DHT22;6730;46.248;6.930;2023-01-29T17:15:44;0.30;99.90
13322;DHT22;6730;46.248;6.930;2023-01-29T17:18:28;0.30;99.90
13322;DHT22;6730;46.248;6.930;2023-01-29T17:20:54;0.40;99.90
13322;DHT22;6730;46.248;6.930;2023-01-29T17:23:20;0.40;99.90
13322;DHT22;6730;46.248;6.930;2023-01-29T17:25:46;0.30;99.90
13322;DHT22;6730;46.248;6.930;2023-01-29T17:28:14;0.20;99.90
13322;DHT22;6730;46.248;6.930;2023-01-29T17:30:40;0.20;99.90
13322;DHT22;6730;46.248;6.930;2023-01-29T17:33:19;0.20;99.90
13322;DHT22;6730;46.248;6.930;2023-01-29T17:35:51;0.30;99.90
13322;DHT22;6730;46.248;6.930;2023-01-29T17:38:19;0.20;99.90
13322;DHT22;6730;46.248;6.930;2023-01-29T17:43:37;-0.10;99.90
13322;DHT22;6730;46.248;6.930;2023-01-29T17:46:02;-0.10;99.90
13322;DHT22;6730;46.248;6.930;2023-01-29T17:48:29;-0.10;99.90
13322;DHT22;6730;46.248;6.930;2023-01-29T17:50:57;-0.20;99.90
13322;DHT22;6730;46.248;6.930;2023-01-29T17:53:24;-0.20;99.90
13322;DHT22;6730;46.248;6.930;2023-01-29T17:55:50;-0.20;99.90
13322;DHT22;6730;46.248;6.930;2023-01-29T17:58:24;-0.20;99.90
13322;DHT22;6730;46.248;6.930;2023-01-29T18:00:51;-0.20;99.90
13322;DHT22;6730;46.248;6.930;2023-01-29T18:03:17;-0.10;99.90
13322;DHT22;6730;46.248;6.930;2023-01-29T18:05:44;0.10;99.90
13322;DHT22;6730;46.248;6.930;2023-01-29T18:08:20;0.10;99.90
13322;DHT22;6730;46.248;6.930;2023-01-29T18:10:46;-0.10;99.90
13322;DHT22;6730;46.248;6.930;2023-01-29T18:13:12;-0.30;99.90
13322;DHT22;6730;46.248;6.930;2023-01-29T18:15:38;-0.40;99.90
13322;DHT22;6730;46.248;6.930;2023-01-29T18:18:04;-0.40;99.90
13322;DHT22;6730;46.248;6.930;2023-01-29T18:20:31;-0.40;99.90
13322;DHT22;6730;46.248;6.930;2023-01-29T18:23:01;-0.40;99.90
13322;DHT22;6730;46.248;6.930;2023-01-29T18:25:29;-0.20;99.90
13322;DHT22;6730;46.248;6.930;2023-01-29T18:27:54;-0.10;99.90
13322;DHT22;6730;46.248;6.930;2023-01-29T18:30:20;-0.10;99.90
13322;DHT22;6730;46.248;6.930;2023-01-29T18:32:46;-0.20;99.90
13322;DHT22;6730;46.248;6.930;2023-01-29T18:35:12;-0.10;99.90
13322;DHT22;6730;46.248;6.930;2023-01-29T18:37:38;-0.20;99.90
13322;DHT22;6730;46.248;6.930;2023-01-29T18:40:04;-0.20;99.90
13322;DHT22;6730;46.248;6.930;2023-01-29T18:42:31;-0.10;99.90
13322;DHT22;6730;46.248;6.930;2023-01-29T18:44:57;-0.20;99.90
13322;DHT22;6730;46.248;6.930;2023-01-29T18:47:23;-0.20;99.90
13322;DHT22;6730;46.248;6.930;2023-01-29T18:49:49;-0.40;99.90
13322;DHT22;6730;46.248;6.930;2023-01-29T18:52:16;-0.70;99.90
13322;DHT22;6730;46.248;6.930;2023-01-29T18:54:42;-0.90;99.90
13322;DHT22;6730;46.248;6.930;2023-01-29T18:57:07;-0.90;99.90
13322;DHT22;6730;46.248;6.930;2023-01-29T18:59:33;-0.60;99.90
13322;DHT22;6730;46.248;6.930;2023-01-29T19:01:59;-0.40;99.90
13322;DHT22;6730;46.248;6.930;2023-01-29T19:04:25;-0.40;99.90
13322;DHT22;6730;46.248;6.930;2023-01-29T19:06:50;-0.50;99.90
13322;DHT22;6730;46.248;6.930;2023-01-29T19:09:16;-0.80;99.90
13322;DHT22;6730;46.248;6.930;2023-01-29T19:11:42;-0.90;99.90
13322;DHT22;6730;46.248;6.930;2023-01-29T19:14:07;-1.00;99.90
13322;DHT22;6730;46.248;6.930;2023-01-29T19:16:33;-0.80;99.90
13322;DHT22;6730;46.248;6.930;2023-01-29T19:18:58;-0.70;99.90
13322;DHT22;6730;46.248;6.930;2023-01-29T19:21:24;-0.80;99.90
13322;DHT22;6730;46.248;6.930;2023-01-29T19:23:50;-0.70;99.90